createdAt,value
2023-03-01T00:09:33.800Z,63.26
2023-03-01T00:12:01.632Z,63.43
2023-03-01T00:14:29.490Z,63.69
2023-03-01T00:16:57.473Z,63.69
2023-03-01T00:19:25.817Z,64.04
2023-03-01T00:21:53.720Z,64.11
2023-03-01T00:24:21.655Z,64.03
2023-03-01T00:26:49.688Z,64.05
2023-03-01T00:29:17.582Z,64.08
2023-03-01T00:31:45.420Z,64.30
2023-03-01T00:34:13.323Z,64.19
2023-03-01T00:36:41.397Z,64.35
2023-03-01T00:39:14.531Z,64.31
2023-03-01T00:41:43.625Z,64.32
2023-03-01T00:44:11.993Z,64.19
2023-03-01T00:46:40.144Z,64.14
2023-03-01T00:49:08.247Z,64.18
2023-03-01T00:51:36.425Z,64.22
2023-03-01T00:54:04.398Z,64.31
2023-03-01T00:56:33.313Z,64.33
2023-03-01T00:59:02.546Z,64.46
2023-03-01T01:01:32.012Z,64.64
2023-03-01T01:04:08.803Z,64.75
2023-03-01T01:06:44.189Z,64.74
2023-03-01T01:09:18.067Z,64.95
2023-03-01T01:11:49.480Z,64.99
2023-03-01T01:14:18.662Z,65.01
2023-03-01T01:16:46.930Z,65.22
2023-03-01T01:19:15.347Z,65.16
2023-03-01T01:21:46.418Z,65.13
2023-03-01T01:24:15.324Z,65.20
2023-03-01T01:26:43.766Z,65.23
2023-03-01T01:29:12.586Z,65.34
2023-03-01T01:31:42.116Z,65.43
2023-03-01T01:34:16.523Z,65.43
2023-03-01T01:36:45.152Z,65.50
2023-03-01T01:39:14.268Z,65.50
2023-03-01T01:41:43.398Z,65.59
2023-03-01T01:44:22.016Z,65.68
2023-03-01T01:46:59.155Z,65.70
2023-03-01T01:49:47.240Z,65.75
2023-03-01T01:52:19.000Z,65.79
2023-03-01T01:54:59.015Z,65.76
2023-03-01T01:57:30.920Z,65.82
2023-03-01T02:00:01.914Z,65.95
2023-03-01T02:02:30.113Z,65.98
2023-03-01T02:05:12.163Z,65.86
2023-03-01T02:07:42.339Z,65.95
2023-03-01T02:10:10.788Z,66.03
2023-03-01T02:12:40.956Z,66.24
2023-03-01T02:15:09.613Z,66.26
2023-03-01T02:17:38.994Z,66.17
2023-03-01T02:20:27.718Z,66.20
2023-03-01T02:22:56.202Z,66.28
2023-03-01T02:25:40.198Z,66.39
2023-03-01T02:28:16.990Z,66.42
2023-03-01T02:31:07.667Z,66.43
2023-03-01T02:33:38.849Z,66.45
2023-03-01T02:36:15.065Z,66.50
2023-03-01T02:38:43.471Z,66.47
2023-03-01T02:41:14.531Z,66.63
2023-03-01T02:43:42.875Z,66.59
2023-03-01T02:46:20.201Z,66.82
2023-03-01T02:48:54.531Z,67.01
2023-03-01T02:51:44.741Z,67.15
2023-03-01T02:54:34.813Z,67.07
2023-03-01T02:57:03.745Z,67.08
2023-03-01T02:59:40.440Z,67.07
2023-03-01T03:02:39.517Z,67.14
2023-03-01T03:05:25.256Z,67.09
2023-03-01T03:07:56.399Z,67.01
2023-03-01T03:10:31.171Z,67.11
2023-03-01T03:13:05.283Z,67.10
2023-03-01T03:15:37.007Z,67.11
2023-03-01T03:18:09.560Z,67.22
2023-03-01T03:20:38.858Z,67.30
2023-03-01T03:23:07.231Z,67.44
2023-03-01T03:25:38.815Z,67.70
2023-03-01T03:28:11.175Z,67.65
2023-03-01T03:30:41.281Z,67.71
2023-03-01T03:33:13.495Z,67.84
2023-03-01T03:35:44.952Z,67.69
2023-03-01T03:38:17.845Z,67.75
2023-03-01T03:40:48.721Z,67.80
2023-03-01T03:43:22.701Z,67.79
2023-03-01T03:45:52.182Z,67.90
2023-03-01T03:48:21.210Z,68.12
2023-03-01T03:50:52.699Z,68.26
2023-03-01T03:53:22.602Z,68.18
2023-03-01T03:55:52.547Z,68.30
2023-03-01T03:58:24.008Z,68.20
2023-03-01T04:00:57.383Z,68.03
2023-03-01T04:03:27.155Z,67.98
2023-03-01T04:05:55.121Z,68.05
2023-03-01T04:08:24.044Z,68.06
2023-03-01T04:10:57.360Z,68.02
2023-03-01T04:13:26.391Z,67.99
2023-03-01T04:15:55.722Z,68.03
2023-03-01T04:18:26.303Z,68.07
2023-03-01T04:20:56.402Z,68.03
2023-03-01T04:23:25.000Z,68.11
2023-03-01T04:25:58.563Z,68.21
2023-03-01T04:28:33.748Z,68.06
2023-03-01T04:31:14.734Z,68.13
2023-03-01T04:33:55.379Z,68.19
2023-03-01T04:36:25.939Z,68.32
2023-03-01T04:38:55.061Z,68.25
2023-03-01T04:41:24.922Z,68.29
2023-03-01T04:43:53.090Z,68.32
2023-03-01T04:46:22.096Z,68.43
2023-03-01T04:48:50.212Z,68.46
2023-03-01T04:51:19.386Z,68.41
2023-03-01T04:53:47.775Z,68.46
2023-03-01T04:56:17.037Z,68.46
2023-03-01T04:58:45.843Z,68.51
2023-03-01T05:01:20.747Z,68.59
2023-03-01T05:03:51.482Z,68.69
2023-03-01T05:06:21.654Z,68.69
2023-03-01T05:08:50.071Z,68.64
2023-03-01T05:11:18.016Z,68.66
2023-03-01T05:13:45.864Z,68.75
2023-03-01T05:16:13.920Z,68.71
2023-03-01T05:18:42.054Z,68.69
2023-03-01T05:21:18.504Z,68.61
2023-03-01T05:23:47.922Z,68.66
2023-03-01T05:26:33.924Z,68.73
2023-03-01T05:29:02.152Z,68.76
2023-03-01T05:31:31.873Z,68.76
2023-03-01T05:33:59.942Z,68.76
2023-03-01T05:36:27.933Z,68.79
2023-03-01T05:38:56.801Z,68.93
2023-03-01T05:41:24.953Z,68.88
2023-03-01T05:43:52.854Z,68.85
2023-03-01T05:46:20.769Z,68.86
2023-03-01T05:48:49.404Z,68.92
2023-03-01T05:51:18.622Z,68.96
2023-03-01T05:53:46.650Z,68.94
2023-03-01T05:56:14.567Z,69.02
2023-03-01T05:58:42.424Z,69.03
2023-03-01T06:01:14.594Z,69.11
2023-03-01T06:03:43.265Z,69.03
2023-03-01T06:06:11.182Z,69.13
2023-03-01T06:08:39.108Z,69.35
2023-03-01T06:11:08.322Z,69.30
2023-03-01T06:13:36.432Z,69.44
2023-03-01T06:16:08.096Z,69.57
2023-03-01T06:18:36.728Z,69.70
2023-03-01T06:21:05.843Z,69.77
2023-03-01T06:23:34.117Z,69.82
2023-03-01T06:26:07.155Z,70.04
2023-03-01T06:28:35.775Z,69.90
2023-03-01T06:31:04.410Z,70.08
2023-03-01T06:33:32.595Z,70.25
2023-03-01T06:36:00.720Z,70.26
2023-03-01T06:38:29.202Z,70.29
2023-03-01T06:40:57.715Z,70.35
2023-03-01T06:43:25.839Z,70.49
2023-03-01T06:45:53.744Z,70.44
2023-03-01T06:48:21.757Z,70.55
2023-03-01T06:50:49.624Z,70.56
2023-03-01T06:53:17.664Z,70.52
2023-03-01T06:55:45.521Z,70.64
2023-03-01T06:58:13.428Z,70.54
2023-03-01T07:00:42.001Z,70.57
2023-03-01T07:03:10.211Z,70.39
2023-03-01T07:05:38.838Z,70.56
2023-03-01T07:08:06.926Z,70.61
2023-03-01T07:10:34.805Z,70.18
2023-03-01T07:13:02.748Z,70.11
2023-03-01T07:15:30.704Z,70.17
2023-03-01T07:17:58.621Z,70.19
2023-03-01T07:20:26.803Z,70.12
2023-03-01T07:22:59.371Z,69.83
2023-03-01T07:25:27.366Z,69.76
2023-03-01T07:27:55.407Z,69.76
2023-03-01T07:30:27.033Z,69.62
2023-03-01T07:32:56.768Z,69.60
2023-03-01T07:35:27.223Z,69.52
2023-03-01T07:37:55.313Z,69.19
2023-03-01T07:40:23.244Z,69.14
2023-03-01T07:42:56.623Z,69.26
2023-03-01T07:45:27.592Z,68.91
2023-03-01T07:47:56.705Z,68.77
2023-03-01T07:50:24.874Z,68.54
2023-03-01T07:52:52.787Z,68.79
2023-03-01T07:55:21.262Z,68.47
2023-03-01T07:57:49.133Z,68.34
2023-03-01T08:00:17.627Z,68.24
2023-03-01T08:02:46.425Z,68.18
2023-03-01T08:05:14.685Z,68.38
2023-03-01T08:07:42.789Z,68.63
2023-03-01T08:10:11.778Z,68.49
2023-03-01T08:12:39.843Z,68.03
2023-03-01T08:15:08.735Z,68.28
2023-03-01T08:17:36.956Z,68.24
2023-03-01T08:20:07.907Z,68.54
2023-03-01T08:22:35.827Z,68.14
2023-03-01T08:25:04.471Z,68.29
2023-03-01T08:27:32.423Z,68.24
2023-03-01T08:30:00.337Z,68.16
2023-03-01T08:32:28.282Z,68.10
2023-03-01T08:34:56.376Z,67.90
2023-03-01T08:37:24.348Z,67.61
2023-03-01T08:39:52.332Z,67.56
2023-03-01T08:42:20.198Z,67.57
2023-03-01T08:44:48.138Z,67.22
2023-03-01T08:47:16.027Z,67.04
2023-03-01T08:49:43.856Z,66.82
2023-03-01T08:52:11.724Z,67.00
2023-03-01T08:54:39.601Z,66.92
2023-03-01T08:57:07.496Z,66.93
2023-03-01T08:59:38.377Z,66.87
2023-03-01T09:02:11.696Z,66.74
2023-03-01T09:04:40.128Z,66.75
2023-03-01T09:07:09.805Z,66.70
2023-03-01T09:09:38.805Z,66.33
2023-03-01T09:12:07.265Z,65.97
2023-03-01T09:14:35.316Z,66.03
2023-03-01T09:17:04.193Z,65.79
2023-03-01T09:19:32.179Z,65.46
2023-03-01T09:22:00.116Z,65.45
2023-03-01T09:24:28.033Z,65.29
2023-03-01T09:26:56.948Z,65.04
2023-03-01T09:29:25.330Z,65.10
2023-03-01T09:31:56.280Z,65.04
2023-03-01T09:34:24.887Z,64.83
2023-03-01T09:36:53.048Z,64.90
2023-03-01T09:39:21.782Z,64.52
2023-03-01T09:42:03.478Z,64.51
2023-03-01T09:44:32.337Z,64.48
2023-03-01T09:47:01.328Z,64.76
2023-03-01T09:49:31.716Z,64.87
2023-03-01T09:52:22.233Z,64.82
2023-03-01T09:54:55.702Z,64.76
2023-03-01T09:57:31.823Z,64.45
2023-03-01T10:00:11.840Z,64.34
2023-03-01T10:02:51.128Z,64.19
2023-03-01T10:05:34.169Z,63.93
2023-03-01T10:08:30.493Z,63.88
2023-03-01T10:10:59.777Z,64.16
2023-03-01T10:13:43.665Z,63.90
2023-03-01T10:16:17.918Z,63.76
2023-03-01T10:18:49.001Z,63.87
2023-03-01T10:21:20.212Z,63.88
2023-03-01T10:23:52.738Z,63.96
2023-03-01T10:26:53.017Z,63.87
2023-03-01T10:29:27.307Z,63.86
2023-03-01T10:31:55.672Z,63.36
2023-03-01T10:34:33.006Z,63.20
2023-03-01T10:37:19.271Z,63.65
2023-03-01T10:40:09.157Z,63.76
2023-03-01T10:42:50.250Z,63.74
2023-03-01T10:45:22.105Z,63.87
2023-03-01T10:48:30.030Z,63.83
2023-03-01T10:51:01.172Z,63.51
2023-03-01T10:53:37.167Z,63.18
2023-03-01T10:56:05.209Z,63.01
2023-03-01T10:58:35.812Z,62.85
2023-03-01T11:01:24.733Z,62.91
2023-03-01T11:04:11.287Z,63.01
2023-03-01T11:06:42.123Z,62.70
2023-03-01T11:09:20.907Z,62.67
2023-03-01T11:12:01.033Z,62.66
2023-03-01T11:14:36.034Z,62.29
2023-03-01T11:17:26.726Z,62.34
2023-03-01T11:20:10.474Z,62.33
2023-03-01T11:22:46.636Z,62.09
2023-03-01T11:25:16.155Z,61.92
2023-03-01T11:27:46.696Z,62.07
2023-03-01T11:30:27.072Z,61.96
2023-03-01T11:33:29.232Z,61.96
2023-03-01T11:36:04.228Z,61.74
2023-03-01T11:38:36.404Z,61.92
2023-03-01T11:41:23.503Z,61.80
2023-03-01T11:43:59.856Z,61.77
2023-03-01T11:46:30.599Z,61.57
2023-03-01T11:49:36.360Z,61.49
2023-03-01T11:52:20.423Z,61.67
2023-03-01T11:54:48.238Z,61.32
2023-03-01T11:58:02.851Z,61.20
2023-03-01T12:01:05.836Z,60.91
2023-03-01T12:03:59.985Z,60.97
2023-03-01T12:06:46.345Z,61.08
2023-03-01T12:10:00.269Z,61.14
2023-03-01T12:12:40.808Z,60.85
2023-03-01T12:15:33.074Z,60.81
2023-03-01T12:18:06.994Z,60.59
2023-03-01T12:20:52.607Z,60.32
2023-03-01T12:23:47.627Z,60.26
2023-03-01T12:26:57.095Z,60.07
2023-03-01T12:29:35.846Z,59.46
2023-03-01T12:32:12.645Z,59.84
2023-03-01T12:34:59.237Z,60.02
2023-03-01T12:37:43.957Z,60.18
2023-03-01T12:40:35.033Z,60.14
2023-03-01T12:43:23.761Z,60.07
2023-03-01T12:46:03.603Z,60.02
2023-03-01T12:48:51.924Z,59.96
2023-03-01T12:51:26.023Z,59.87
2023-03-01T12:53:57.309Z,59.67
2023-03-01T12:56:29.995Z,59.72
2023-03-01T12:59:18.460Z,60.08
2023-03-01T13:01:55.491Z,59.99
2023-03-01T13:04:37.586Z,59.89
2023-03-01T13:07:20.148Z,59.80
2023-03-01T13:10:42.096Z,59.70
2023-03-01T13:13:14.301Z,59.68
2023-03-01T13:15:42.350Z,59.38
2023-03-01T13:18:12.980Z,59.24
2023-03-01T13:20:44.045Z,59.15
2023-03-01T13:23:30.856Z,59.41
2023-03-01T13:26:04.778Z,59.59
2023-03-01T13:28:32.690Z,59.30
2023-03-01T13:31:02.550Z,59.08
2023-03-01T13:33:30.411Z,58.90
2023-03-01T13:35:59.520Z,58.77
2023-03-01T13:39:01.044Z,58.65
2023-03-01T13:41:44.101Z,58.33
2023-03-01T13:44:27.953Z,58.54
2023-03-01T13:47:18.391Z,58.63
2023-03-01T13:49:58.257Z,58.70
2023-03-01T13:52:38.958Z,58.14
2023-03-01T13:55:17.872Z,57.94
2023-03-01T13:57:54.670Z,58.04
2023-03-01T14:00:40.529Z,58.08
2023-03-01T14:03:17.402Z,58.00
2023-03-01T14:06:17.321Z,57.86
2023-03-01T14:08:50.390Z,57.70
2023-03-01T14:11:50.140Z,57.56
2023-03-01T14:14:27.089Z,57.74
2023-03-01T14:17:14.127Z,57.69
2023-03-01T14:19:46.275Z,57.35
2023-03-01T14:22:24.721Z,57.21
2023-03-01T14:24:56.567Z,57.15
2023-03-01T14:27:33.745Z,57.25
2023-03-01T14:30:05.388Z,57.19
2023-03-01T14:32:33.656Z,57.17
2023-03-01T14:35:01.920Z,57.27
2023-03-01T14:37:35.096Z,57.10
2023-03-01T14:40:05.434Z,57.08
2023-03-01T14:42:37.213Z,56.82
2023-03-01T14:45:08.139Z,56.82
2023-03-01T14:47:41.214Z,56.86
2023-03-01T14:50:16.867Z,56.80
2023-03-01T14:52:48.358Z,56.67
2023-03-01T14:55:20.060Z,56.66
2023-03-01T14:57:50.491Z,56.78
2023-03-01T15:00:25.397Z,56.70
2023-03-01T15:02:55.028Z,56.56
2023-03-01T15:05:34.967Z,56.46
2023-03-01T15:08:05.644Z,56.40
2023-03-01T15:10:37.499Z,56.29
2023-03-01T15:13:25.433Z,56.23
2023-03-01T15:16:08.045Z,56.32
2023-03-01T15:18:37.660Z,56.34
2023-03-01T15:21:24.335Z,56.35
2023-03-01T15:24:28.655Z,56.25
2023-03-01T15:27:02.857Z,56.34
2023-03-01T15:29:34.408Z,56.49
2023-03-01T15:32:06.931Z,56.28
2023-03-01T15:34:38.690Z,56.38
2023-03-01T15:37:28.532Z,56.14
2023-03-01T15:39:58.691Z,56.25
2023-03-01T15:42:26.497Z,56.27
2023-03-01T15:45:13.336Z,56.17
2023-03-01T15:47:43.028Z,56.26
2023-03-01T15:50:21.760Z,56.34
2023-03-01T15:52:50.447Z,56.29
2023-03-01T15:55:26.148Z,56.24
2023-03-01T15:58:25.602Z,56.19
2023-03-01T16:01:01.080Z,56.33
2023-03-01T16:03:30.107Z,56.27
2023-03-01T16:05:58.166Z,56.12
2023-03-01T16:08:26.315Z,56.32
2023-03-01T16:10:55.610Z,56.32
2023-03-01T16:13:23.738Z,56.40
2023-03-01T16:15:52.506Z,56.22
2023-03-01T16:18:20.817Z,56.34
2023-03-01T16:20:49.342Z,56.34
2023-03-01T16:23:17.335Z,56.27
2023-03-01T16:25:45.269Z,56.43
2023-03-01T16:28:13.195Z,56.35
2023-03-01T16:30:41.545Z,56.29
2023-03-01T16:33:25.185Z,56.29
2023-03-01T16:35:56.288Z,56.36
2023-03-01T16:38:24.637Z,56.38
2023-03-01T16:40:53.046Z,56.33
2023-03-01T16:43:21.343Z,56.53
2023-03-01T16:45:49.295Z,56.43
2023-03-01T16:48:17.373Z,56.49
2023-03-01T16:50:45.486Z,56.63
2023-03-01T16:53:13.450Z,56.81
2023-03-01T16:55:46.449Z,56.80
2023-03-01T16:58:16.475Z,56.80
2023-03-01T17:00:44.496Z,56.86
2023-03-01T17:03:14.891Z,57.04
2023-03-01T17:05:43.147Z,57.33
2023-03-01T17:08:11.145Z,57.48
2023-03-01T17:10:39.275Z,57.54
2023-03-01T17:13:07.602Z,57.57
2023-03-01T17:15:36.142Z,57.62
2023-03-01T17:18:04.520Z,57.66
2023-03-01T17:20:32.460Z,57.64
2023-03-01T17:23:00.571Z,57.71
2023-03-01T17:25:29.362Z,57.84
2023-03-01T17:27:58.332Z,57.93
2023-03-01T17:30:26.551Z,58.03
2023-03-01T17:32:56.360Z,58.14
2023-03-01T17:35:24.576Z,58.17
2023-03-01T17:37:52.599Z,58.08
2023-03-01T17:40:20.650Z,58.24
2023-03-01T17:42:48.568Z,58.20
2023-03-01T17:45:16.680Z,58.23
2023-03-01T17:47:44.727Z,58.23
2023-03-01T17:50:12.680Z,58.22
2023-03-01T17:52:41.609Z,58.23
2023-03-01T17:55:10.630Z,58.27
2023-03-01T17:57:40.636Z,58.25
2023-03-01T18:00:16.173Z,58.35
2023-03-01T18:02:48.645Z,58.45
2023-03-01T18:05:17.453Z,58.49
2023-03-01T18:07:45.696Z,58.63
2023-03-01T18:10:14.621Z,58.75
2023-03-01T18:12:43.450Z,58.87
2023-03-01T18:15:12.608Z,58.87
2023-03-01T18:17:40.980Z,58.98
2023-03-01T18:20:10.606Z,58.94
2023-03-01T18:22:40.013Z,58.98
2023-03-01T18:25:09.242Z,59.03
2023-03-01T18:27:38.707Z,59.14
2023-03-01T18:30:08.958Z,59.09
2023-03-01T18:32:39.680Z,59.15
2023-03-01T18:35:08.468Z,59.20
2023-03-01T18:37:36.656Z,59.31
2023-03-01T18:40:08.845Z,59.42
2023-03-01T18:42:37.565Z,59.52
2023-03-01T18:45:06.791Z,59.59
2023-03-01T18:47:37.662Z,59.68
2023-03-01T18:50:08.976Z,59.65
2023-03-01T18:52:37.249Z,59.71
2023-03-01T18:55:06.595Z,59.87
2023-03-01T18:57:34.713Z,59.92
2023-03-01T19:00:04.740Z,59.94
2023-03-01T19:02:33.435Z,60.05
2023-03-01T19:05:01.556Z,60.09
2023-03-01T19:07:32.682Z,60.22
2023-03-01T19:10:00.909Z,60.30
2023-03-01T19:12:35.496Z,60.22
2023-03-01T19:15:05.390Z,60.30
2023-03-01T19:17:35.803Z,60.58
2023-03-01T19:20:05.233Z,60.51
2023-03-01T19:22:34.320Z,60.47
2023-03-01T19:25:03.923Z,60.63
2023-03-01T19:27:32.479Z,60.64
2023-03-01T19:30:03.503Z,60.56
2023-03-01T19:32:33.365Z,60.57
2023-03-01T19:35:01.905Z,60.70
2023-03-01T19:37:30.591Z,60.70
2023-03-01T19:40:01.325Z,60.81
2023-03-01T19:42:29.484Z,60.76
2023-03-01T19:44:57.851Z,60.90
2023-03-01T19:47:26.568Z,60.97
2023-03-01T19:49:54.595Z,60.93
2023-03-01T19:52:22.902Z,61.03
2023-03-01T19:54:53.790Z,61.23
2023-03-01T19:57:24.054Z,61.31
2023-03-01T19:59:52.540Z,61.40
2023-03-01T20:02:21.405Z,61.40
2023-03-01T20:04:50.320Z,61.53
2023-03-01T20:07:18.629Z,61.80
2023-03-01T20:09:46.643Z,62.06
2023-03-01T20:12:14.885Z,61.94
2023-03-01T20:14:55.410Z,62.07
2023-03-01T20:17:24.059Z,62.21
2023-03-01T20:19:52.195Z,62.40
2023-03-01T20:22:20.456Z,62.27
2023-03-01T20:24:48.913Z,62.28
2023-03-01T20:27:17.131Z,62.41
2023-03-01T20:29:46.057Z,62.39
2023-03-01T20:32:14.245Z,62.41
2023-03-01T20:34:44.665Z,62.49
2023-03-01T20:37:16.868Z,62.31
2023-03-01T20:39:45.744Z,62.30
2023-03-01T20:42:16.445Z,62.49
2023-03-01T20:44:45.892Z,62.54
2023-03-01T20:47:15.578Z,62.52
2023-03-01T20:49:43.694Z,62.45
2023-03-01T20:52:11.723Z,62.62
2023-03-01T20:54:40.888Z,62.76
2023-03-01T20:57:09.175Z,62.86
2023-03-01T20:59:37.985Z,62.82
2023-03-01T21:02:06.361Z,62.72
2023-03-01T21:04:37.084Z,62.81
2023-03-01T21:07:05.186Z,62.93
2023-03-01T21:09:34.920Z,62.95
2023-03-01T21:12:04.367Z,62.86
2023-03-01T21:14:42.403Z,62.88
2023-03-01T21:17:12.914Z,62.98
2023-03-01T21:19:45.413Z,63.02
2023-03-01T21:22:15.721Z,63.14
2023-03-01T21:24:45.304Z,63.22
2023-03-01T21:27:15.586Z,63.32
2023-03-01T21:29:46.057Z,63.40
2023-03-01T21:32:14.866Z,63.47
2023-03-01T21:34:45.528Z,63.64
2023-03-01T21:37:13.443Z,63.77
2023-03-01T21:39:41.739Z,63.72
2023-03-01T21:42:09.616Z,63.74
2023-03-01T21:44:37.864Z,63.82
2023-03-01T21:47:07.129Z,63.95
2023-03-01T21:49:38.375Z,63.99
2023-03-01T21:52:06.413Z,64.16
2023-03-01T21:54:35.071Z,64.32
2023-03-01T21:57:03.210Z,64.33
2023-03-01T21:59:31.330Z,64.42
2023-03-01T22:01:59.323Z,64.83
2023-03-01T22:04:27.339Z,64.77
2023-03-01T22:06:55.629Z,64.75
2023-03-01T22:09:24.589Z,64.53
2023-03-01T22:11:58.418Z,64.52
2023-03-01T22:14:26.524Z,64.64
2023-03-01T22:16:54.904Z,64.69
2023-03-01T22:19:23.386Z,64.79
2023-03-01T22:21:52.669Z,64.67
2023-03-01T22:24:24.856Z,64.82
2023-03-01T22:26:54.864Z,64.88
2023-03-01T22:29:26.225Z,64.96
2023-03-01T22:31:55.672Z,65.08
2023-03-01T22:34:24.619Z,65.24
2023-03-01T22:36:52.556Z,65.13
2023-03-01T22:39:21.705Z,65.13
2023-03-01T22:41:50.338Z,65.21
2023-03-01T22:44:22.210Z,65.22
2023-03-01T22:46:50.842Z,65.30
2023-03-01T22:49:20.068Z,65.31
2023-03-01T22:51:48.860Z,65.34
2023-03-01T22:54:18.712Z,65.30
2023-03-01T22:56:47.048Z,65.38
2023-03-01T22:59:18.994Z,65.45
2023-03-01T23:01:48.035Z,65.42
2023-03-01T23:04:17.677Z,65.46
2023-03-01T23:06:55.822Z,65.54
2023-03-01T23:09:32.885Z,65.62
2023-03-01T23:12:02.586Z,65.73
2023-03-01T23:14:32.245Z,65.67
2023-03-01T23:17:01.722Z,65.70
2023-03-01T23:19:30.710Z,65.59
2023-03-01T23:21:58.984Z,65.60
2023-03-01T23:24:31.375Z,65.48
2023-03-01T23:27:02.015Z,65.38
2023-03-01T23:29:31.227Z,65.67
2023-03-01T23:32:00.436Z,65.72
2023-03-01T23:34:28.470Z,65.98
2023-03-01T23:36:58.075Z,66.14
2023-03-01T23:39:26.397Z,66.08
2023-03-01T23:41:54.440Z,66.34
2023-03-01T23:44:22.972Z,66.56
2023-03-01T23:46:51.431Z,66.43
2023-03-01T23:49:22.133Z,66.38
2023-03-01T23:51:50.568Z,66.09
2023-03-01T23:54:22.272Z,66.16
2023-03-01T23:56:50.632Z,66.27
2023-03-01T23:59:23.362Z,66.36
